Time;durP1;ratioP1;P1;durP2;ratioP2;P2;SDS_P1;SDS_P2;PMS_P1;PMS_P2;Temp;Humidity;BMP_temperature;BMP_pressure;BME280_temperature;BME280_humidity;BME280_pressure;Samples;Min_cycle;Max_cycle;Signal;HPM_P1;HPM_P2
2023/01/09 00:01:58;;;;;;;;;;;7.20;99.90;;;;;;5035195;28;20305;-68
2023/01/09 00:04:23;;;;;;;;;;;7.30;99.90;;;;;;5033464;28;19929;-68
2023/01/09 00:06:52;;;;;;;;;;;7.30;99.90;;;;;;5036255;28;19921;-68
2023/01/09 00:09:20;;;;;;;;;;;7.30;99.90;;;;;;5075250;28;19996;-68
2023/01/09 00:11:46;;;;;;;;;;;7.30;99.90;;;;;;5043970;28;19977;-69
2023/01/09 00:14:12;;;;;;;;;;;7.40;99.90;;;;;;5047172;28;19925;-75
2023/01/09 00:16:38;;;;;;;;;;;7.30;99.90;;;;;;5048717;28;19928;-74
2023/01/09 00:19:04;;;;;;;;;;;7.40;99.90;;;;;;5042951;28;19921;-69
2023/01/09 00:21:29;;;;;;;;;;;7.40;99.90;;;;;;5039490;28;20389;-67
2023/01/09 00:23:55;;;;;;;;;;;7.50;99.90;;;;;;5050081;28;19999;-67
2023/01/09 00:26:20;;;;;;;;;;;7.40;99.90;;;;;;5041148;28;19925;-68
2023/01/09 00:28:47;;;;;;;;;;;7.40;99.90;;;;;;5048891;28;20440;-68
2023/01/09 00:31:13;;;;;;;;;;;7.30;99.90;;;;;;5049424;28;20050;-69
2023/01/09 00:33:43;;;;;;;;;;;7.30;99.90;;;;;;5048003;28;20007;-68
2023/01/09 00:36:09;;;;;;;;;;;7.20;99.90;;;;;;5050978;28;20430;-70
2023/01/09 00:38:38;;;;;;;;;;;7.20;99.90;;;;;;5045786;28;20050;-68
2023/01/09 00:41:05;;;;;;;;;;;7.10;99.90;;;;;;5039582;28;20336;-68
2023/01/09 00:43:32;;;;;;;;;;;7.10;99.90;;;;;;5049612;28;20289;-70
2023/01/09 00:45:59;;;;;;;;;;;7.00;99.90;;;;;;5035015;28;19928;-68
2023/01/09 00:48:26;;;;;;;;;;;7.00;99.90;;;;;;5060700;28;20282;-68
2023/01/09 00:50:54;;;;;;;;;;;7.00;99.90;;;;;;5050553;28;19950;-68
2023/01/09 00:53:22;;;;;;;;;;;7.00;99.90;;;;;;5041578;28;20345;-71
2023/01/09 00:55:48;;;;;;;;;;;7.00;99.90;;;;;;5050239;28;20382;-68
2023/01/09 00:58:13;;;;;;;;;;;7.00;99.90;;;;;;5050988;28;20003;-71
2023/01/09 01:00:39;;;;;;;;;;;7.00;99.90;;;;;;5051621;28;19928;-68
2023/01/09 01:03:05;;;;;;;;;;;6.90;99.90;;;;;;5050672;28;19917;-68
2023/01/09 01:08:16;;;;;;;;;;;6.90;99.90;;;;;;5043745;28;20329;-68
2023/01/09 01:10:42;;;;;;;;;;;6.90;99.90;;;;;;5051130;28;20445;-68
2023/01/09 01:13:08;;;;;;;;;;;6.90;99.90;;;;;;5050767;28;19931;-68
2023/01/09 01:15:34;;;;;;;;;;;6.90;99.90;;;;;;5050358;28;19933;-72
2023/01/09 01:17:59;;;;;;;;;;;6.80;99.90;;;;;;5047056;28;19927;-69
2023/01/09 01:20:25;;;;;;;;;;;6.80;99.90;;;;;;5042633;28;20321;-68
2023/01/09 01:22:50;;;;;;;;;;;6.80;99.90;;;;;;5049628;28;19924;-68
2023/01/09 01:25:16;;;;;;;;;;;6.80;99.90;;;;;;5041884;28;19971;-69
2023/01/09 01:27:42;;;;;;;;;;;6.80;99.90;;;;;;5048050;28;19936;-68
2023/01/09 01:30:09;;;;;;;;;;;6.70;99.90;;;;;;5044350;28;20037;-71
2023/01/09 01:32:34;;;;;;;;;;;6.70;99.90;;;;;;5044944;28;19928;-68
2023/01/09 01:35:00;;;;;;;;;;;6.80;99.90;;;;;;5030852;28;19940;-68
2023/01/09 01:37:26;;;;;;;;;;;6.70;99.90;;;;;;5033706;28;19921;-68
2023/01/09 01:39:52;;;;;;;;;;;6.70;99.90;;;;;;5047147;28;19921;-68
2023/01/09 01:42:17;;;;;;;;;;;6.70;99.90;;;;;;5047101;28;20637;-68
2023/01/09 01:44:58;;;;;;;;;;;6.70;99.90;;;;;;5050006;28;19928;-68
2023/01/09 01:47:47;;;;;;;;;;;6.70;99.90;;;;;;5046457;28;19929;-69
2023/01/09 01:50:16;;;;;;;;;;;6.70;99.90;;;;;;5041536;28;20168;-68
2023/01/09 01:52:44;;;;;;;;;;;6.80;99.90;;;;;;5043735;28;20341;-69
2023/01/09 01:55:10;;;;;;;;;;;6.80;99.90;;;;;;5045391;28;20384;-68
2023/01/09 01:57:36;;;;;;;;;;;6.80;99.90;;;;;;5038365;28;20441;-70
2023/01/09 02:00:03;;;;;;;;;;;6.80;99.90;;;;;;5037992;28;19920;-69
2023/01/09 02:02:30;;;;;;;;;;;6.80;99.90;;;;;;5050051;28;19921;-68
2023/01/09 02:04:57;;;;;;;;;;;6.80;99.90;;;;;;5041524;28;19983;-68
2023/01/09 02:07:22;;;;;;;;;;;6.80;99.90;;;;;;5036029;28;19925;-70
2023/01/09 02:09:48;;;;;;;;;;;6.70;99.90;;;;;;5043812;28;20294;-68
2023/01/09 02:12:22;;;;;;;;;;;6.80;99.90;;;;;;5037202;28;19926;-68
2023/01/09 02:14:49;;;;;;;;;;;6.80;99.90;;;;;;5044614;28;20286;-68
2023/01/09 02:17:18;;;;;;;;;;;6.80;99.90;;;;;;5044304;28;19928;-70
2023/01/09 02:19:53;;;;;;;;;;;6.70;99.90;;;;;;5048885;28;19982;-68
2023/01/09 02:22:36;;;;;;;;;;;6.70;99.90;;;;;;5039277;28;19929;-68
2023/01/09 02:25:17;;;;;;;;;;;6.70;99.90;;;;;;5043387;28;19924;-70
2023/01/09 02:27:49;;;;;;;;;;;6.70;99.90;;;;;;5042171;28;19925;-68
2023/01/09 02:30:17;;;;;;;;;;;6.70;99.90;;;;;;5081224;28;19924;-68
2023/01/09 02:32:43;;;;;;;;;;;6.70;99.90;;;;;;5048962;28;20393;-68
2023/01/09 02:35:30;;;;;;;;;;;6.70;99.90;;;;;;5042088;28;19986;-71
2023/01/09 02:38:11;;;;;;;;;;;6.60;99.90;;;;;;5049520;28;20010;-68
2023/01/09 02:40:36;;;;;;;;;;;6.60;99.90;;;;;;5040778;28;19928;-68
2023/01/09 02:43:03;;;;;;;;;;;6.60;99.90;;;;;;5043540;28;20325;-65
2023/01/09 02:45:28;;;;;;;;;;;6.50;99.90;;;;;;5040620;28;20263;-70
2023/01/09 02:47:54;;;;;;;;;;;6.50;99.90;;;;;;5076927;28;19920;-69
2023/01/09 02:50:26;;;;;;;;;;;6.50;99.90;;;;;;5038779;28;19932;-68
2023/01/09 02:53:13;;;;;;;;;;;6.50;99.90;;;;;;5037081;28;20297;-68
2023/01/09 02:56:02;;;;;;;;;;;6.50;99.90;;;;;;5040117;28;19935;-67
2023/01/09 02:59:03;;;;;;;;;;;6.40;99.90;;;;;;5037547;28;19925;-68
2023/01/09 03:01:51;;;;;;;;;;;6.40;99.90;;;;;;5025335;28;19932;-68
2023/01/09 03:04:20;;;;;;;;;;;6.40;99.90;;;;;;5061470;28;19967;-68
2023/01/09 03:07:07;;;;;;;;;;;6.30;99.90;;;;;;5037763;28;20414;-68
2023/01/09 03:09:34;;;;;;;;;;;6.30;99.90;;;;;;5042618;28;19928;-68
2023/01/09 03:12:07;;;;;;;;;;;6.30;99.90;;;;;;5047962;28;19928;-68
2023/01/09 03:14:33;;;;;;;;;;;6.30;99.90;;;;;;5054034;28;20019;-68
2023/01/09 03:17:02;;;;;;;;;;;6.20;99.90;;;;;;5038489;28;19948;-69
2023/01/09 03:19:29;;;;;;;;;;;6.20;99.90;;;;;;5044691;28;19920;-68
2023/01/09 03:21:55;;;;;;;;;;;6.20;99.90;;;;;;5049690;28;19966;-69
2023/01/09 03:24:21;;;;;;;;;;;6.20;99.90;;;;;;5043928;28;20279;-68
2023/01/09 03:26:46;;;;;;;;;;;6.20;99.90;;;;;;5047359;28;20460;-68
2023/01/09 03:29:12;;;;;;;;;;;6.20;99.90;;;;;;5050194;28;19931;-67
2023/01/09 03:31:37;;;;;;;;;;;6.10;99.90;;;;;;5052959;28;20305;-71
2023/01/09 03:34:03;;;;;;;;;;;6.10;99.90;;;;;;5051040;28;19924;-68
2023/01/09 03:36:28;;;;;;;;;;;6.10;99.90;;;;;;5052883;28;20010;-70
2023/01/09 03:38:54;;;;;;;;;;;6.10;99.90;;;;;;5053679;28;19921;-68
2023/01/09 03:41:20;;;;;;;;;;;6.10;99.90;;;;;;5051973;28;19920;-68
2023/01/09 03:43:47;;;;;;;;;;;6.00;99.90;;;;;;5046041;28;19967;-68
2023/01/09 03:46:13;;;;;;;;;;;6.00;99.90;;;;;;5052615;28;19925;-70
2023/01/09 03:48:39;;;;;;;;;;;6.00;99.90;;;;;;5085496;28;19920;-68
2023/01/09 03:51:04;;;;;;;;;;;6.00;99.90;;;;;;5051454;28;19925;-68
2023/01/09 03:53:30;;;;;;;;;;;5.90;99.90;;;;;;5052397;28;19924;-67
2023/01/09 03:55:56;;;;;;;;;;;5.90;99.90;;;;;;5084018;28;19927;-67
2023/01/09 03:58:22;;;;;;;;;;;5.90;99.90;;;;;;5040703;28;20007;-68
2023/01/09 04:00:49;;;;;;;;;;;5.90;99.90;;;;;;5052961;28;19921;-67
2023/01/09 04:03:16;;;;;;;;;;;5.80;99.90;;;;;;5045680;28;19939;-70
2023/01/09 04:05:42;;;;;;;;;;;5.90;99.90;;;;;;5049720;28;19994;-67
2023/01/09 04:08:08;;;;;;;;;;;5.80;99.90;;;;;;5050748;28;19920;-69
2023/01/09 04:10:33;;;;;;;;;;;5.80;99.90;;;;;;5050316;28;19978;-68
2023/01/09 04:12:59;;;;;;;;;;;5.80;99.90;;;;;;5050031;28;20313;-67
2023/01/09 04:15:24;;;;;;;;;;;5.80;99.90;;;;;;5047835;28;19925;-67
2023/01/09 04:17:50;;;;;;;;;;;5.70;99.90;;;;;;5032134;28;19932;-67
2023/01/09 04:20:16;;;;;;;;;;;5.70;99.90;;;;;;5041024;28;19972;-67
2023/01/09 04:22:41;;;;;;;;;;;5.70;99.90;;;;;;5042315;28;19924;-68
2023/01/09 04:25:07;;;;;;;;;;;5.60;99.90;;;;;;5050332;28;20003;-73
2023/01/09 04:27:33;;;;;;;;;;;5.60;99.90;;;;;;5043398;28;19925;-68
2023/01/09 04:29:58;;;;;;;;;;;5.50;99.90;;;;;;5050862;28;20476;-68
2023/01/09 04:32:26;;;;;;;;;;;5.50;99.90;;;;;;5050954;28;19932;-68
2023/01/09 04:34:55;;;;;;;;;;;5.50;99.90;;;;;;5048365;28;19921;-68
2023/01/09 04:37:20;;;;;;;;;;;5.50;99.90;;;;;;5042954;28;19921;-68
2023/01/09 04:39:46;;;;;;;;;;;5.50;99.90;;;;;;5051221;28;19924;-68
2023/01/09 04:42:12;;;;;;;;;;;5.40;99.90;;;;;;5048917;28;20294;-68
2023/01/09 04:44:37;;;;;;;;;;;5.50;99.90;;;;;;5044945;28;20397;-69
2023/01/09 04:47:03;;;;;;;;;;;5.40;99.90;;;;;;5049733;28;19925;-68
2023/01/09 04:49:29;;;;;;;;;;;5.50;99.90;;;;;;5050594;28;19921;-68
2023/01/09 04:51:54;;;;;;;;;;;5.40;99.90;;;;;;5050540;28;19971;-68
2023/01/09 04:54:20;;;;;;;;;;;5.30;99.90;;;;;;5051453;28;20007;-68
2023/01/09 04:56:45;;;;;;;;;;;5.40;99.90;;;;;;5050266;28;19928;-66
2023/01/09 04:59:11;;;;;;;;;;;5.40;99.90;;;;;;5049030;28;19920;-69
2023/01/09 05:01:37;;;;;;;;;;;5.40;99.90;;;;;;5044242;28;20615;-68
2023/01/09 05:04:02;;;;;;;;;;;5.30;99.90;;;;;;5039286;28;19924;-72
2023/01/09 05:06:29;;;;;;;;;;;5.30;99.90;;;;;;5042784;28;19924;-66
2023/01/09 05:08:55;;;;;;;;;;;5.30;99.90;;;;;;5044178;28;19968;-67
2023/01/09 05:11:21;;;;;;;;;;;5.30;99.90;;;;;;5040869;28;19924;-67
2023/01/09 05:13:46;;;;;;;;;;;5.30;99.90;;;;;;5034282;28;20669;-66
2023/01/09 05:16:12;;;;;;;;;;;5.40;99.90;;;;;;5034988;28;19925;-66
2023/01/09 05:18:38;;;;;;;;;;;5.30;99.90;;;;;;5043427;28;20012;-67
2023/01/09 05:21:03;;;;;;;;;;;5.40;99.90;;;;;;5037230;28;19948;-68
2023/01/09 05:23:29;;;;;;;;;;;5.30;99.90;;;;;;5034597;28;19920;-71
2023/01/09 05:25:54;;;;;;;;;;;5.30;99.90;;;;;;5050368;28;19925;-68
2023/01/09 05:28:20;;;;;;;;;;;5.30;99.90;;;;;;5082212;28;19925;-77
2023/01/09 05:30:46;;;;;;;;;;;5.30;99.90;;;;;;5049840;28;20007;-68
2023/01/09 05:33:11;;;;;;;;;;;5.30;99.90;;;;;;5050967;28;19924;-69
2023/01/09 05:35:37;;;;;;;;;;;5.20;99.90;;;;;;5043680;28;20011;-70
2023/01/09 05:38:03;;;;;;;;;;;5.30;99.90;;;;;;5039981;28;19928;-71
2023/01/09 05:40:28;;;;;;;;;;;5.20;99.90;;;;;;5040482;28;20366;-68
2023/01/09 05:42:54;;;;;;;;;;;5.30;99.90;;;;;;5075988;28;19921;-69
2023/01/09 05:45:19;;;;;;;;;;;5.30;99.90;;;;;;5040555;28;20039;-70
2023/01/09 05:47:45;;;;;;;;;;;5.30;99.90;;;;;;5050068;28;20058;-68
2023/01/09 05:50:11;;;;;;;;;;;5.30;99.90;;;;;;5049289;28;19928;-68
2023/01/09 05:52:37;;;;;;;;;;;5.40;99.90;;;;;;5036135;28;19929;-70
2023/01/09 05:55:03;;;;;;;;;;;5.40;99.90;;;;;;5046537;28;20297;-67
2023/01/09 05:57:28;;;;;;;;;;;5.40;99.90;;;;;;5039024;28;19943;-66
2023/01/09 05:59:54;;;;;;;;;;;5.40;99.90;;;;;;5043077;28;20343;-66
2023/01/09 06:02:19;;;;;;;;;;;5.40;99.90;;;;;;5031091;28;19929;-66
2023/01/09 06:04:45;;;;;;;;;;;5.50;99.90;;;;;;5032085;28;20574;-66
2023/01/09 06:07:11;;;;;;;;;;;5.50;99.90;;;;;;5031431;28;19921;-68
2023/01/09 06:09:36;;;;;;;;;;;5.50;99.90;;;;;;5041147;28;19921;-67
2023/01/09 06:12:02;;;;;;;;;;;5.50;99.90;;;;;;5047200;28;20457;-67
2023/01/09 06:14:28;;;;;;;;;;;5.50;99.90;;;;;;5048578;28;19935;-77
2023/01/09 06:16:54;;;;;;;;;;;5.60;99.90;;;;;;5039673;28;20259;-66
2023/01/09 06:19:20;;;;;;;;;;;5.60;99.90;;;;;;5034472;28;19983;-69
2023/01/09 06:21:45;;;;;;;;;;;5.50;99.90;;;;;;5034409;28;19946;-66
2023/01/09 06:24:11;;;;;;;;;;;5.60;99.90;;;;;;5035731;28;19920;-67
2023/01/09 06:26:36;;;;;;;;;;;5.70;99.90;;;;;;5046994;28;20332;-67
2023/01/09 06:29:02;;;;;;;;;;;5.60;99.90;;;;;;5032365;28;19924;-66
2023/01/09 06:31:28;;;;;;;;;;;5.70;99.90;;;;;;5049226;28;19921;-75
2023/01/09 06:33:53;;;;;;;;;;;5.70;99.90;;;;;;5050252;28;19950;-68
2023/01/09 06:36:19;;;;;;;;;;;5.60;99.90;;;;;;5046744;28;20011;-66
2023/01/09 06:38:44;;;;;;;;;;;5.70;99.90;;;;;;5050008;28;20382;-66
2023/01/09 06:41:10;;;;;;;;;;;5.70;99.90;;;;;;5047817;28;19968;-66
2023/01/09 06:43:36;;;;;;;;;;;5.70;99.90;;;;;;5043474;28;20488;-66
2023/01/09 06:46:03;;;;;;;;;;;5.80;99.90;;;;;;5043071;28;19925;-66
2023/01/09 06:48:28;;;;;;;;;;;5.80;99.90;;;;;;5081161;28;20011;-67
2023/01/09 06:50:54;;;;;;;;;;;5.70;99.90;;;;;;5054058;28;20007;-67
2023/01/09 06:53:19;;;;;;;;;;;5.70;99.90;;;;;;5052990;28;19959;-67
2023/01/09 06:55:45;;;;;;;;;;;5.80;99.90;;;;;;5043487;28;19925;-66
2023/01/09 06:58:12;;;;;;;;;;;5.70;99.90;;;;;;5051737;28;19951;-67
2023/01/09 07:00:38;;;;;;;;;;;5.70;99.90;;;;;;5053349;28;19929;-69
2023/01/09 07:03:04;;;;;;;;;;;5.70;99.90;;;;;;5053937;28;19935;-66
2023/01/09 07:05:30;;;;;;;;;;;5.80;99.90;;;;;;5053896;28;20003;-73
2023/01/09 07:07:55;;;;;;;;;;;5.80;99.90;;;;;;5050900;28;20008;-66
2023/01/09 07:10:21;;;;;;;;;;;5.70;99.90;;;;;;5052374;28;19947;-67
2023/01/09 07:12:47;;;;;;;;;;;5.80;99.90;;;;;;5052982;28;19924;-66
2023/01/09 07:15:12;;;;;;;;;;;5.80;99.90;;;;;;5061830;28;20554;-67
2023/01/09 07:17:38;;;;;;;;;;;5.70;99.90;;;;;;5042050;28;19921;-66
2023/01/09 07:20:04;;;;;;;;;;;5.70;99.90;;;;;;5047844;28;19932;-68
2023/01/09 07:22:29;;;;;;;;;;;5.70;99.90;;;;;;5054228;28;20305;-67
2023/01/09 07:24:55;;;;;;;;;;;5.80;99.90;;;;;;5049010;28;19921;-67
2023/01/09 07:27:21;;;;;;;;;;;5.70;99.90;;;;;;5052607;28;19978;-67
2023/01/09 07:29:46;;;;;;;;;;;5.60;99.90;;;;;;5053140;28;19971;-67
2023/01/09 07:32:12;;;;;;;;;;;5.70;99.90;;;;;;5053864;28;20007;-70
2023/01/09 07:34:38;;;;;;;;;;;5.70;99.90;;;;;;5053505;28;20430;-76
2023/01/09 07:37:03;;;;;;;;;;;5.70;99.90;;;;;;5052055;28;19929;-67
2023/01/09 07:39:29;;;;;;;;;;;5.70;99.90;;;;;;5083549;28;19921;-67
2023/01/09 07:41:54;;;;;;;;;;;5.70;99.90;;;;;;5050124;28;19932;-68
2023/01/09 07:44:20;;;;;;;;;;;5.70;99.90;;;;;;5045636;28;19932;-68
2023/01/09 07:46:45;;;;;;;;;;;5.80;99.90;;;;;;5036098;28;19928;-73
2023/01/09 07:49:11;;;;;;;;;;;5.70;99.90;;;;;;5046132;28;19968;-69
2023/01/09 07:51:41;;;;;;;;;;;5.70;99.90;;;;;;5043640;28;19921;-68
2023/01/09 07:54:08;;;;;;;;;;;5.70;99.90;;;;;;5040977;28;19924;-67
2023/01/09 07:56:34;;;;;;;;;;;5.80;99.90;;;;;;5042181;28;20351;-67
2023/01/09 07:58:59;;;;;;;;;;;5.80;99.90;;;;;;5041496;28;20029;-67
2023/01/09 08:01:25;;;;;;;;;;;5.70;99.90;;;;;;5046935;28;19924;-68
2023/01/09 08:03:50;;;;;;;;;;;5.70;99.90;;;;;;5045652;28;19925;-68
2023/01/09 08:06:16;;;;;;;;;;;5.70;99.90;;;;;;5049306;28;19928;-68
2023/01/09 08:08:42;;;;;;;;;;;5.70;99.90;;;;;;5048646;28;19921;-78
2023/01/09 08:11:07;;;;;;;;;;;5.70;99.90;;;;;;5049026;28;19942;-68
2023/01/09 08:13:33;;;;;;;;;;;5.70;99.90;;;;;;5044240;28;20397;-68
2023/01/09 08:15:58;;;;;;;;;;;5.60;99.90;;;;;;5047835;28;19970;-68
2023/01/09 08:18:24;;;;;;;;;;;5.60;99.90;;;;;;5049795;28;19932;-66
2023/01/09 08:20:50;;;;;;;;;;;5.70;99.90;;;;;;5039940;28;19967;-66
2023/01/09 08:23:15;;;;;;;;;;;5.70;99.90;;;;;;5051365;28;19954;-66
2023/01/09 08:25:41;;;;;;;;;;;5.70;99.90;;;;;;5052330;28;19931;-67
2023/01/09 08:28:08;;;;;;;;;;;5.70;99.90;;;;;;5048530;28;19940;-69
2023/01/09 08:30:33;;;;;;;;;;;5.70;99.90;;;;;;5042407;28;20410;-66
2023/01/09 08:32:59;;;;;;;;;;;5.70;99.90;;;;;;5045610;28;19929;-69
2023/01/09 08:35:25;;;;;;;;;;;5.70;99.90;;;;;;5049012;28;19920;-66
2023/01/09 08:37:50;;;;;;;;;;;5.80;99.90;;;;;;5083363;28;19927;-66
2023/01/09 08:40:16;;;;;;;;;;;5.70;99.90;;;;;;5050659;28;20039;-66
2023/01/09 08:48:10;;;;;;;;;;;5.80;99.90;;;;;;5051834;28;19968;-65
2023/01/09 08:50:36;;;;;;;;;;;5.80;99.90;;;;;;5046610;28;19963;-65
2023/01/09 08:53:02;;;;;;;;;;;5.80;99.90;;;;;;5050300;28;19932;-66
2023/01/09 08:55:27;;;;;;;;;;;5.80;99.90;;;;;;5051539;28;19924;-66
2023/01/09 08:57:53;;;;;;;;;;;5.90;99.90;;;;;;5045137;28;19925;-68
2023/01/09 09:00:19;;;;;;;;;;;5.80;99.90;;;;;;5049927;28;20011;-66
2023/01/09 09:02:49;;;;;;;;;;;5.90;99.90;;;;;;5043408;28;19924;-66
2023/01/09 09:05:14;;;;;;;;;;;5.90;99.90;;;;;;5043539;28;19921;-66
2023/01/09 09:07:41;;;;;;;;;;;5.90;99.90;;;;;;5048231;28;19943;-66
2023/01/09 09:10:07;;;;;;;;;;;5.80;99.90;;;;;;5046877;28;19964;-65
2023/01/09 09:12:33;;;;;;;;;;;5.90;99.90;;;;;;5050992;28;19964;-65
2023/01/09 09:15:18;;;;;;;;;;;5.90;99.90;;;;;;5047740;28;20362;-71
2023/01/09 09:17:44;;;;;;;;;;;5.90;99.90;;;;;;5036557;28;20373;-66
2023/01/09 09:20:10;;;;;;;;;;;6.00;99.90;;;;;;5045419;28;19947;-67
2023/01/09 09:22:36;;;;;;;;;;;6.00;99.90;;;;;;5047876;28;20019;-65
2023/01/09 09:25:03;;;;;;;;;;;6.00;99.90;;;;;;5050460;28;19947;-65
2023/01/09 09:27:29;;;;;;;;;;;6.10;99.90;;;;;;5049185;28;20285;-65
2023/01/09 09:29:55;;;;;;;;;;;6.10;99.90;;;;;;5050005;28;19925;-69
2023/01/09 09:32:21;;;;;;;;;;;6.10;99.90;;;;;;5062884;28;19943;-65
2023/01/09 09:34:46;;;;;;;;;;;6.10;99.90;;;;;;5072424;28;19953;-66
2023/01/09 09:37:12;;;;;;;;;;;6.10;99.90;;;;;;5047965;28;20003;-70
2023/01/09 09:39:37;;;;;;;;;;;6.20;99.90;;;;;;5034160;28;20673;-71
2023/01/09 09:45:26;;;;;;;;;;;6.20;99.90;;;;;;5046182;28;20181;-66
2023/01/09 09:48:03;;;;;;;;;;;6.20;99.90;;;;;;5040440;28;19924;-66
2023/01/09 09:50:48;;;;;;;;;;;6.20;99.90;;;;;;5041102;28;19931;-66
2023/01/09 09:53:16;;;;;;;;;;;6.20;99.90;;;;;;5032741;28;19924;-66
2023/01/09 09:55:43;;;;;;;;;;;6.30;99.90;;;;;;5047555;28;19921;-67
2023/01/09 09:58:27;;;;;;;;;;;6.30;99.90;;;;;;5032814;28;19925;-70
2023/01/09 10:00:54;;;;;;;;;;;6.30;99.90;;;;;;5043755;28;20007;-66
2023/01/09 10:03:30;;;;;;;;;;;6.30;99.90;;;;;;5031810;28;19928;-66
2023/01/09 10:05:56;;;;;;;;;;;6.30;99.90;;;;;;5027367;28;19933;-68
2023/01/09 10:08:40;;;;;;;;;;;6.40;99.90;;;;;;5036667;28;20039;-68
2023/01/09 10:11:11;;;;;;;;;;;6.40;99.90;;;;;;5046170;28;20397;-65
2023/01/09 10:16:21;;;;;;;;;;;6.40;99.90;;;;;;5037292;28;19928;-70
2023/01/09 10:18:56;;;;;;;;;;;6.40;99.90;;;;;;5048353;28;19928;-66
2023/01/09 10:21:21;;;;;;;;;;;6.40;99.90;;;;;;5049805;28;20413;-65
2023/01/09 10:24:01;;;;;;;;;;;6.50;99.90;;;;;;5047167;28;19928;-65
2023/01/09 10:26:31;;;;;;;;;;;6.50;99.90;;;;;;5043446;28;19928;-66
2023/01/09 10:29:11;;;;;;;;;;;6.50;99.90;;;;;;5046423;28;19931;-65
2023/01/09 10:31:47;;;;;;;;;;;6.50;99.90;;;;;;5087222;28;19932;-66
2023/01/09 10:34:13;;;;;;;;;;;6.50;99.90;;;;;;5046549;28;20417;-66
2023/01/09 10:36:41;;;;;;;;;;;6.60;99.90;;;;;;5037904;28;19925;-66
2023/01/09 10:39:11;;;;;;;;;;;6.60;99.90;;;;;;5048299;28;19940;-66
2023/01/09 10:41:39;;;;;;;;;;;6.60;99.90;;;;;;5050385;28;19927;-67
2023/01/09 10:44:25;;;;;;;;;;;6.70;99.90;;;;;;5050255;28;20374;-73
2023/01/09 10:46:52;;;;;;;;;;;6.70;99.90;;;;;;5042212;28;20333;-69
2023/01/09 10:49:19;;;;;;;;;;;6.70;99.90;;;;;;5050834;28;19955;-65
2023/01/09 10:51:49;;;;;;;;;;;6.70;99.90;;;;;;5053893;28;19927;-68
2023/01/09 10:54:17;;;;;;;;;;;6.70;99.90;;;;;;5044460;28;20047;-69
2023/01/09 10:56:59;;;;;;;;;;;6.70;99.90;;;;;;5041379;28;20299;-65
2023/01/09 10:59:25;;;;;;;;;;;6.80;99.90;;;;;;5043059;28;20539;-66
2023/01/09 11:01:50;;;;;;;;;;;6.80;99.90;;;;;;5042692;28;19929;-66
2023/01/09 11:04:16;;;;;;;;;;;6.80;99.90;;;;;;5047263;28;20225;-70
2023/01/09 11:07:17;;;;;;;;;;;6.80;99.90;;;;;;5046813;28;19932;-68
2023/01/09 11:09:56;;;;;;;;;;;6.90;99.90;;;;;;4965538;28;20176;-66
2023/01/09 11:12:23;;;;;;;;;;;6.90;99.90;;;;;;5043494;28;19921;-67
2023/01/09 11:14:49;;;;;;;;;;;6.90;99.90;;;;;;5051866;28;20015;-66
2023/01/09 11:17:19;;;;;;;;;;;6.90;99.90;;;;;;5051268;28;19921;-67
2023/01/09 11:20:01;;;;;;;;;;;6.90;99.90;;;;;;5047900;28;19950;-67
2023/01/09 11:22:27;;;;;;;;;;;6.90;99.90;;;;;;5047699;28;20333;-67
2023/01/09 11:25:00;;;;;;;;;;;7.00;99.90;;;;;;5047226;28;20007;-66
2023/01/09 11:27:26;;;;;;;;;;;7.00;99.90;;;;;;5041769;28;19974;-67
2023/01/09 11:30:09;;;;;;;;;;;7.00;99.90;;;;;;5048085;28;19928;-66
2023/01/09 11:32:35;;;;;;;;;;;6.90;99.90;;;;;;5050675;28;19921;-67
2023/01/09 11:35:04;;;;;;;;;;;6.90;99.90;;;;;;5051548;28;19931;-66
2023/01/09 11:37:30;;;;;;;;;;;7.00;99.90;;;;;;5050548;28;19925;-66
2023/01/09 11:39:57;;;;;;;;;;;6.90;99.90;;;;;;5053580;28;19927;-66
2023/01/09 11:45:21;;;;;;;;;;;7.00;99.90;;;;;;5046885;28;20274;-67
2023/01/09 11:47:46;;;;;;;;;;;7.00;99.90;;;;;;5046186;28;19928;-67
2023/01/09 11:50:21;;;;;;;;;;;7.00;99.90;;;;;;5040528;28;19920;-76
2023/01/09 11:53:07;;;;;;;;;;;7.00;99.90;;;;;;5048317;28;19928;-74
2023/01/09 11:55:32;;;;;;;;;;;7.00;99.90;;;;;;5049227;28;19927;-66
2023/01/09 11:57:58;;;;;;;;;;;6.90;99.90;;;;;;5044784;28;19987;-71
2023/01/09 12:00:25;;;;;;;;;;;7.00;99.90;;;;;;5047473;28;19963;-68
2023/01/09 12:03:13;;;;;;;;;;;7.00;99.90;;;;;;5049577;28;19929;-68
2023/01/09 12:05:45;;;;;;;;;;;7.00;99.90;;;;;;5041765;28;19967;-68
2023/01/09 12:08:11;;;;;;;;;;;6.90;99.90;;;;;;5044274;28;19932;-76
2023/01/09 12:10:45;;;;;;;;;;;7.00;99.90;;;;;;5047174;28;19921;-70
2023/01/09 12:13:30;;;;;;;;;;;6.90;99.90;;;;;;5043685;28;19924;-71
2023/01/09 12:15:55;;;;;;;;;;;7.00;99.90;;;;;;5041179;28;20388;-71
2023/01/09 12:18:39;;;;;;;;;;;6.90;99.90;;;;;;5048572;28;19929;-71
2023/01/09 12:21:10;;;;;;;;;;;6.90;99.90;;;;;;5050572;28;19943;-71
2023/01/09 12:23:45;;;;;;;;;;;6.90;99.90;;;;;;5047363;28;19917;-71
2023/01/09 12:26:19;;;;;;;;;;;6.90;99.90;;;;;;5050913;28;20367;-71
2023/01/09 12:28:44;;;;;;;;;;;6.90;99.90;;;;;;5047581;28;19925;-71
2023/01/09 12:31:30;;;;;;;;;;;7.00;99.90;;;;;;5052441;28;19931;-70
2023/01/09 12:33:56;;;;;;;;;;;6.90;99.90;;;;;;5049777;28;19924;-70
2023/01/09 12:36:42;;;;;;;;;;;6.90;99.90;;;;;;5044036;28;19925;-69
2023/01/09 12:39:17;;;;;;;;;;;7.00;99.90;;;;;;5079674;28;20026;-67
2023/01/09 12:41:43;;;;;;;;;;;7.00;99.90;;;;;;5050834;28;19963;-71
2023/01/09 12:44:27;;;;;;;;;;;6.90;99.90;;;;;;5049983;28;20422;-69
2023/01/09 12:46:56;;;;;;;;;;;7.00;99.90;;;;;;5048263;28;20813;-68
2023/01/09 12:49:26;;;;;;;;;;;6.90;99.90;;;;;;5060225;28;19925;-68
2023/01/09 12:52:00;;;;;;;;;;;7.00;99.90;;;;;;5057691;28;20007;-69
2023/01/09 12:54:40;;;;;;;;;;;7.00;99.90;;;;;;5053876;28;19921;-68
2023/01/09 12:57:11;;;;;;;;;;;7.00;99.90;;;;;;5046957;28;19921;-68
2023/01/09 12:59:43;;;;;;;;;;;7.00;99.90;;;;;;5048002;28;19932;-69
2023/01/09 13:02:21;;;;;;;;;;;6.90;99.90;;;;;;5045280;28;19988;-67
2023/01/09 13:05:08;;;;;;;;;;;6.90;99.90;;;;;;5048544;28;20018;-68
2023/01/09 13:07:48;;;;;;;;;;;6.90;99.90;;;;;;5040443;28;19975;-68
2023/01/09 13:10:13;;;;;;;;;;;6.90;99.90;;;;;;5046680;28;19928;-69
2023/01/09 13:12:40;;;;;;;;;;;7.00;99.90;;;;;;5049073;28;19927;-68
2023/01/09 13:15:18;;;;;;;;;;;7.00;99.90;;;;;;5046386;28;19983;-70
2023/01/09 13:17:52;;;;;;;;;;;7.00;99.90;;;;;;5047135;28;19925;-67
2023/01/09 13:20:29;;;;;;;;;;;7.00;99.90;;;;;;5041487;28;19976;-67
2023/01/09 13:22:55;;;;;;;;;;;7.00;99.90;;;;;;5034034;28;19944;-67
2023/01/09 13:25:36;;;;;;;;;;;7.00;99.90;;;;;;5035986;28;19924;-68
2023/01/09 13:28:17;;;;;;;;;;;7.00;99.90;;;;;;5048015;28;19968;-69
2023/01/09 13:31:02;;;;;;;;;;;7.00;99.90;;;;;;5046042;28;20063;-69
2023/01/09 13:33:34;;;;;;;;;;;7.00;99.90;;;;;;5026638;28;19999;-69
2023/01/09 13:36:02;;;;;;;;;;;7.00;99.90;;;;;;5047660;28;19921;-69
2023/01/09 13:38:29;;;;;;;;;;;7.10;99.90;;;;;;5048199;28;20019;-69
2023/01/09 13:43:56;;;;;;;;;;;7.10;99.90;;;;;;5048768;28;20038;-69
2023/01/09 13:46:22;;;;;;;;;;;7.10;99.90;;;;;;5048041;28;20033;-69
2023/01/09 13:48:47;;;;;;;;;;;7.10;99.90;;;;;;5050580;28;19932;-69
2023/01/09 13:51:35;;;;;;;;;;;7.10;99.90;;;;;;5047892;28;19925;-70
2023/01/09 13:54:00;;;;;;;;;;;7.10;99.90;;;;;;5046726;28;20047;-69
2023/01/09 13:56:26;;;;;;;;;;;7.20;99.90;;;;;;5045361;28;19971;-75
2023/01/09 13:58:56;;;;;;;;;;;7.20;99.90;;;;;;5046592;28;20002;-69
2023/01/09 14:01:36;;;;;;;;;;;7.20;99.90;;;;;;5040755;28;19924;-70
2023/01/09 14:04:08;;;;;;;;;;;7.20;99.90;;;;;;5049464;28;19920;-69
2023/01/09 14:06:33;;;;;;;;;;;7.30;99.90;;;;;;5038907;28;20382;-68
2023/01/09 14:09:17;;;;;;;;;;;7.20;99.90;;;;;;5044430;28;19924;-69
2023/01/09 14:11:42;;;;;;;;;;;7.20;99.90;;;;;;5043471;28;19924;-69
2023/01/09 14:14:15;;;;;;;;;;;7.20;99.90;;;;;;5042708;28;19932;-70
2023/01/09 14:16:40;;;;;;;;;;;7.20;99.90;;;;;;5042234;28;19925;-69
2023/01/09 14:19:20;;;;;;;;;;;7.20;99.90;;;;;;5049949;28;20297;-69
2023/01/09 14:21:51;;;;;;;;;;;7.20;99.90;;;;;;5040311;28;20334;-69
2023/01/09 14:24:19;;;;;;;;;;;7.20;99.90;;;;;;5045888;28;19921;-68
2023/01/09 14:26:55;;;;;;;;;;;7.20;99.90;;;;;;5046048;28;19930;-69
2023/01/09 14:29:27;;;;;;;;;;;7.20;99.90;;;;;;5072145;28;19947;-69
2023/01/09 14:32:12;;;;;;;;;;;7.10;99.90;;;;;;5036106;28;19968;-69
2023/01/09 14:34:38;;;;;;;;;;;7.10;99.90;;;;;;5043741;28;19920;-69
2023/01/09 14:37:04;;;;;;;;;;;7.10;99.90;;;;;;5044077;28;19929;-68
2023/01/09 14:39:30;;;;;;;;;;;7.10;99.90;;;;;;5044113;28;20020;-69
2023/01/09 14:42:04;;;;;;;;;;;7.00;99.90;;;;;;5042078;28;19943;-69
2023/01/09 14:44:34;;;;;;;;;;;7.10;99.90;;;;;;5047175;28;20289;-69
2023/01/09 14:47:18;;;;;;;;;;;7.00;99.90;;;;;;5040702;28;19929;-71
2023/01/09 14:49:55;;;;;;;;;;;7.00;99.90;;;;;;5040770;28;19928;-69
2023/01/09 14:52:31;;;;;;;;;;;7.00;99.90;;;;;;5044634;28;19975;-70
2023/01/09 14:55:02;;;;;;;;;;;7.00;99.90;;;;;;5035619;28;19967;-68
2023/01/09 14:57:28;;;;;;;;;;;7.00;99.90;;;;;;5041491;28;19931;-69
2023/01/09 14:59:55;;;;;;;;;;;7.00;99.90;;;;;;5046834;28;19963;-68
2023/01/09 15:02:21;;;;;;;;;;;7.10;99.90;;;;;;5031004;28;20411;-70